sensor_id;sensor_type;location;lat;lon;timestamp;temperature;humidity
18577;DHT22;9418;52.694;13.294;2023-05-10T00:02:21;11.40;99.90
18577;DHT22;9418;52.694;13.294;2023-05-10T00:04:48;11.30;99.90
18577;DHT22;9418;52.694;13.294;2023-05-10T00:07:14;11.30;99.90
18577;DHT22;9418;52.694;13.294;2023-05-10T00:09:42;11.30;99.90
18577;DHT22;9418;52.694;13.294;2023-05-10T00:12:09;11.20;99.90
18577;DHT22;9418;52.694;13.294;2023-05-10T00:14:37;11.20;99.90
18577;DHT22;9418;52.694;13.294;2023-05-10T00:17:03;11.20;99.90
18577;DHT22;9418;52.694;13.294;2023-05-10T00:19:30;11.20;99.90
18577;DHT22;9418;52.694;13.294;2023-05-10T00:21:56;11.20;99.90
18577;DHT22;9418;52.694;13.294;2023-05-10T00:24:23;11.10;99.90
18577;DHT22;9418;52.694;13.294;2023-05-10T00:26:49;11.10;99.90
18577;DHT22;9418;52.694;13.294;2023-05-10T00:29:16;11.10;99.90
18577;DHT22;9418;52.694;13.294;2023-05-10T00:31:43;11.10;99.90
18577;DHT22;9418;52.694;13.294;2023-05-10T00:34:10;11.00;99.90
18577;DHT22;9418;52.694;13.294;2023-05-10T00:36:36;11.00;99.90
18577;DHT22;9418;52.694;13.294;2023-05-10T00:39:03;11.00;99.90
18577;DHT22;9418;52.694;13.294;2023-05-10T00:41:30;11.00;99.90
18577;DHT22;9418;52.694;13.294;2023-05-10T00:43:57;11.00;99.90
18577;DHT22;9418;52.694;13.294;2023-05-10T00:46:24;11.00;99.90
18577;DHT22;9418;52.694;13.294;2023-05-10T00:48:53;10.90;99.90
18577;DHT22;9418;52.694;13.294;2023-05-10T00:51:20;10.90;99.90
18577;DHT22;9418;52.694;13.294;2023-05-10T00:53:47;10.80;99.90
18577;DHT22;9418;52.694;13.294;2023-05-10T00:56:15;10.80;99.90
18577;DHT22;9418;52.694;13.294;2023-05-10T00:58:42;10.80;99.90
18577;DHT22;9418;52.694;13.294;2023-05-10T01:01:09;10.70;99.90
18577;DHT22;9418;52.694;13.294;2023-05-10T01:03:36;10.60;99.90
18577;DHT22;9418;52.694;13.294;2023-05-10T01:06:05;10.60;99.90
18577;DHT22;9418;52.694;13.294;2023-05-10T01:08:32;10.60;99.90
18577;DHT22;9418;52.694;13.294;2023-05-10T01:10:59;10.60;99.90
18577;DHT22;9418;52.694;13.294;2023-05-10T01:13:31;10.50;99.90
18577;DHT22;9418;52.694;13.294;2023-05-10T01:15:59;10.50;99.90
18577;DHT22;9418;52.694;13.294;2023-05-10T01:18:27;10.50;99.90
18577;DHT22;9418;52.694;13.294;2023-05-10T01:21:04;10.40;99.90
18577;DHT22;9418;52.694;13.294;2023-05-10T01:24:04;10.40;99.90
18577;DHT22;9418;52.694;13.294;2023-05-10T01:30:05;10.40;99.90
18577;DHT22;9418;52.694;13.294;2023-05-10T01:32:40;10.40;99.90
18577;DHT22;9418;52.694;13.294;2023-05-10T01:35:14;10.30;99.90
18577;DHT22;9418;52.694;13.294;2023-05-10T01:37:46;10.30;99.90
18577;DHT22;9418;52.694;13.294;2023-05-10T01:40:19;10.30;99.90
18577;DHT22;9418;52.694;13.294;2023-05-10T01:42:49;10.30;99.90
18577;DHT22;9418;52.694;13.294;2023-05-10T01:45:22;10.20;99.90
18577;DHT22;9418;52.694;13.294;2023-05-10T01:47:57;10.20;99.90
18577;DHT22;9418;52.694;13.294;2023-05-10T01:50:27;10.30;99.90
18577;DHT22;9418;52.694;13.294;2023-05-10T01:52:57;10.20;99.90
18577;DHT22;9418;52.694;13.294;2023-05-10T01:55:27;10.20;99.90
18577;DHT22;9418;52.694;13.294;2023-05-10T01:58:02;10.10;99.90
18577;DHT22;9418;52.694;13.294;2023-05-10T02:00:29;10.10;99.90
18577;DHT22;9418;52.694;13.294;2023-05-10T02:03:00;10.10;99.90
18577;DHT22;9418;52.694;13.294;2023-05-10T02:05:29;10.00;99.90
18577;DHT22;9418;52.694;13.294;2023-05-10T02:07:57;10.00;99.90
18577;DHT22;9418;52.694;13.294;2023-05-10T02:10:26;10.00;99.90
18577;DHT22;9418;52.694;13.294;2023-05-10T02:12:53;10.00;99.90
18577;DHT22;9418;52.694;13.294;2023-05-10T02:15:24;10.00;99.90
18577;DHT22;9418;52.694;13.294;2023-05-10T02:17:52;10.00;99.90
18577;DHT22;9418;52.694;13.294;2023-05-10T02:20:22;9.90;99.90
18577;DHT22;9418;52.694;13.294;2023-05-10T02:22:51;9.90;99.90
18577;DHT22;9418;52.694;13.294;2023-05-10T02:25:19;9.90;99.90
18577;DHT22;9418;52.694;13.294;2023-05-10T02:27:47;9.90;99.90
18577;DHT22;9418;52.694;13.294;2023-05-10T02:30:15;10.00;99.90
18577;DHT22;9418;52.694;13.294;2023-05-10T02:32:42;9.90;99.90
18577;DHT22;9418;52.694;13.294;2023-05-10T02:35:09;9.90;99.90
18577;DHT22;9418;52.694;13.294;2023-05-10T02:37:38;9.90;99.90
18577;DHT22;9418;52.694;13.294;2023-05-10T02:40:07;9.90;99.90
18577;DHT22;9418;52.694;13.294;2023-05-10T02:42:36;9.80;99.90
18577;DHT22;9418;52.694;13.294;2023-05-10T02:45:07;9.80;99.90
18577;DHT22;9418;52.694;13.294;2023-05-10T02:47:34;9.80;99.90
18577;DHT22;9418;52.694;13.294;2023-05-10T02:50:00;9.80;99.90
18577;DHT22;9418;52.694;13.294;2023-05-10T02:52:30;9.80;99.90
18577;DHT22;9418;52.694;13.294;2023-05-10T02:55:05;9.70;99.90
18577;DHT22;9418;52.694;13.294;2023-05-10T02:57:33;9.70;99.90
18577;DHT22;9418;52.694;13.294;2023-05-10T03:00:01;9.60;99.90
18577;DHT22;9418;52.694;13.294;2023-05-10T03:02:28;9.70;99.90
18577;DHT22;9418;52.694;13.294;2023-05-10T03:04:56;9.60;93.70
18577;DHT22;9418;52.694;13.294;2023-05-10T03:07:22;9.50;94.50
18577;DHT22;9418;52.694;13.294;2023-05-10T03:09:49;9.50;92.30
18577;DHT22;9418;52.694;13.294;2023-05-10T03:12:24;9.50;92.00
18577;DHT22;9418;52.694;13.294;2023-05-10T03:14:57;9.50;88.20
18577;DHT22;9418;52.694;13.294;2023-05-10T03:17:30;9.50;87.40
18577;DHT22;9418;52.694;13.294;2023-05-10T03:20:04;9.50;86.70
18577;DHT22;9418;52.694;13.294;2023-05-10T03:22:37;9.50;85.70
18577;DHT22;9418;52.694;13.294;2023-05-10T03:25:06;9.40;86.30
18577;DHT22;9418;52.694;13.294;2023-05-10T03:27:36;9.40;82.90
18577;DHT22;9418;52.694;13.294;2023-05-10T03:30:08;9.40;84.30
18577;DHT22;9418;52.694;13.294;2023-05-10T03:32:35;9.50;83.10
18577;DHT22;9418;52.694;13.294;2023-05-10T03:35:05;9.50;88.50
18577;DHT22;9418;52.694;13.294;2023-05-10T03:37:32;9.60;86.70
18577;DHT22;9418;52.694;13.294;2023-05-10T03:39:58;9.60;93.00
18577;DHT22;9418;52.694;13.294;2023-05-10T03:42:25;9.60;92.10
18577;DHT22;9418;52.694;13.294;2023-05-10T03:44:53;9.70;88.30
18577;DHT22;9418;52.694;13.294;2023-05-10T03:47:20;9.60;92.30
18577;DHT22;9418;52.694;13.294;2023-05-10T03:49:46;9.70;97.70
18577;DHT22;9418;52.694;13.294;2023-05-10T03:52:13;9.60;96.40
18577;DHT22;9418;52.694;13.294;2023-05-10T03:54:40;9.60;94.30
18577;DHT22;9418;52.694;13.294;2023-05-10T03:57:07;9.60;92.60
18577;DHT22;9418;52.694;13.294;2023-05-10T03:59:35;9.60;92.50
18577;DHT22;9418;52.694;13.294;2023-05-10T04:02:02;9.60;90.90
18577;DHT22;9418;52.694;13.294;2023-05-10T04:04:29;9.60;83.90
18577;DHT22;9418;52.694;13.294;2023-05-10T04:06:55;9.70;92.30
18577;DHT22;9418;52.694;13.294;2023-05-10T04:09:22;9.70;95.20
18577;DHT22;9418;52.694;13.294;2023-05-10T04:11:48;9.80;92.90
18577;DHT22;9418;52.694;13.294;2023-05-10T04:14:15;9.80;99.90
18577;DHT22;9418;52.694;13.294;2023-05-10T04:16:42;9.80;99.90
18577;DHT22;9418;52.694;13.294;2023-05-10T04:19:10;9.90;93.80
18577;DHT22;9418;52.694;13.294;2023-05-10T04:21:37;10.00;98.70
18577;DHT22;9418;52.694;13.294;2023-05-10T04:24:04;10.00;99.90
18577;DHT22;9418;52.694;13.294;2023-05-10T04:26:31;10.10;99.90
18577;DHT22;9418;52.694;13.294;2023-05-10T04:28:57;10.10;99.90
18577;DHT22;9418;52.694;13.294;2023-05-10T04:31:24;10.20;99.90
18577;DHT22;9418;52.694;13.294;2023-05-10T04:33:51;10.20;99.90
18577;DHT22;9418;52.694;13.294;2023-05-10T04:36:19;10.20;99.90
18577;DHT22;9418;52.694;13.294;2023-05-10T04:38:45;10.40;99.90
18577;DHT22;9418;52.694;13.294;2023-05-10T04:41:12;10.40;99.90
18577;DHT22;9418;52.694;13.294;2023-05-10T04:43:39;10.50;99.90
18577;DHT22;9418;52.694;13.294;2023-05-10T04:46:05;10.50;99.90
18577;DHT22;9418;52.694;13.294;2023-05-10T04:48:32;10.60;99.90
18577;DHT22;9418;52.694;13.294;2023-05-10T04:50:58;10.70;99.90
18577;DHT22;9418;52.694;13.294;2023-05-10T04:53:26;10.70;99.90
18577;DHT22;9418;52.694;13.294;2023-05-10T04:55:53;10.80;99.90
18577;DHT22;9418;52.694;13.294;2023-05-10T04:58:20;10.90;99.90
18577;DHT22;9418;52.694;13.294;2023-05-10T05:00:46;11.00;99.90
18577;DHT22;9418;52.694;13.294;2023-05-10T05:03:13;11.00;99.90
18577;DHT22;9418;52.694;13.294;2023-05-10T05:05:40;11.10;99.90
18577;DHT22;9418;52.694;13.294;2023-05-10T05:08:06;11.20;99.90
18577;DHT22;9418;52.694;13.294;2023-05-10T05:10:34;11.30;99.90
18577;DHT22;9418;52.694;13.294;2023-05-10T05:13:01;11.30;99.90
18577;DHT22;9418;52.694;13.294;2023-05-10T05:15:27;11.40;99.90
18577;DHT22;9418;52.694;13.294;2023-05-10T05:17:55;11.50;99.90
18577;DHT22;9418;52.694;13.294;2023-05-10T05:20:21;11.60;99.90
18577;DHT22;9418;52.694;13.294;2023-05-10T05:22:49;11.60;99.90
18577;DHT22;9418;52.694;13.294;2023-05-10T05:25:16;11.70;99.90
18577;DHT22;9418;52.694;13.294;2023-05-10T05:27:43;11.70;99.90
18577;DHT22;9418;52.694;13.294;2023-05-10T05:30:10;11.80;99.90
18577;DHT22;9418;52.694;13.294;2023-05-10T05:32:37;11.80;99.90
18577;DHT22;9418;52.694;13.294;2023-05-10T05:35:04;11.90;99.90
18577;DHT22;9418;52.694;13.294;2023-05-10T05:37:31;12.00;99.90
18577;DHT22;9418;52.694;13.294;2023-05-10T05:39:58;12.10;99.90
18577;DHT22;9418;52.694;13.294;2023-05-10T05:42:26;12.20;99.90
18577;DHT22;9418;52.694;13.294;2023-05-10T05:44:54;12.40;99.90
18577;DHT22;9418;52.694;13.294;2023-05-10T05:47:20;12.40;99.90
18577;DHT22;9418;52.694;13.294;2023-05-10T05:49:47;12.50;99.90
18577;DHT22;9418;52.694;13.294;2023-05-10T05:52:13;12.70;99.90
18577;DHT22;9418;52.694;13.294;2023-05-10T05:54:40;12.60;99.90
18577;DHT22;9418;52.694;13.294;2023-05-10T05:57:07;12.70;99.90
18577;DHT22;9418;52.694;13.294;2023-05-10T05:59:34;12.80;99.90
18577;DHT22;9418;52.694;13.294;2023-05-10T06:02:02;12.90;99.90
18577;DHT22;9418;52.694;13.294;2023-05-10T06:04:28;13.00;99.90
18577;DHT22;9418;52.694;13.294;2023-05-10T06:06:55;13.10;99.90
18577;DHT22;9418;52.694;13.294;2023-05-10T06:09:21;13.10;99.90
18577;DHT22;9418;52.694;13.294;2023-05-10T06:11:49;13.20;99.90
18577;DHT22;9418;52.694;13.294;2023-05-10T06:14:16;13.40;99.90
18577;DHT22;9418;52.694;13.294;2023-05-10T06:16:42;13.40;99.90
18577;DHT22;9418;52.694;13.294;2023-05-10T06:19:10;13.50;99.90
18577;DHT22;9418;52.694;13.294;2023-05-10T06:21:37;13.60;99.90
18577;DHT22;9418;52.694;13.294;2023-05-10T06:24:04;13.70;99.90
18577;DHT22;9418;52.694;13.294;2023-05-10T06:26:32;13.70;99.90
18577;DHT22;9418;52.694;13.294;2023-05-10T06:28:58;13.90;99.90
18577;DHT22;9418;52.694;13.294;2023-05-10T06:31:25;13.90;99.90
18577;DHT22;9418;52.694;13.294;2023-05-10T06:33:51;14.10;99.90
18577;DHT22;9418;52.694;13.294;2023-05-10T06:36:20;14.10;99.90
18577;DHT22;9418;52.694;13.294;2023-05-10T06:38:47;14.30;99.90
18577;DHT22;9418;52.694;13.294;2023-05-10T06:41:13;14.40;99.90
18577;DHT22;9418;52.694;13.294;2023-05-10T06:43:40;14.40;99.90
18577;DHT22;9418;52.694;13.294;2023-05-10T06:46:08;14.50;99.90
18577;DHT22;9418;52.694;13.294;2023-05-10T06:48:35;14.70;99.90
18577;DHT22;9418;52.694;13.294;2023-05-10T06:51:01;14.70;99.90
18577;DHT22;9418;52.694;13.294;2023-05-10T06:53:29;14.80;99.90
18577;DHT22;9418;52.694;13.294;2023-05-10T06:55:56;15.10;99.90
18577;DHT22;9418;52.694;13.294;2023-05-10T06:58:22;15.30;99.90
18577;DHT22;9418;52.694;13.294;2023-05-10T07:00:49;15.20;99.90
18577;DHT22;9418;52.694;13.294;2023-05-10T07:03:15;15.30;99.90
18577;DHT22;9418;52.694;13.294;2023-05-10T07:05:42;15.30;99.90
18577;DHT22;9418;52.694;13.294;2023-05-10T07:08:09;15.40;99.90
18577;DHT22;9418;52.694;13.294;2023-05-10T07:10:37;15.60;99.90
18577;DHT22;9418;52.694;13.294;2023-05-10T07:13:03;15.80;99.90
18577;DHT22;9418;52.694;13.294;2023-05-10T07:15:30;15.60;99.90
18577;DHT22;9418;52.694;13.294;2023-05-10T07:17:56;15.50;99.90
18577;DHT22;9418;52.694;13.294;2023-05-10T07:20:23;15.50;99.90
18577;DHT22;9418;52.694;13.294;2023-05-10T07:22:49;15.60;99.90
18577;DHT22;9418;52.694;13.294;2023-05-10T07:25:16;15.70;99.90
18577;DHT22;9418;52.694;13.294;2023-05-10T07:27:44;15.70;99.90
18577;DHT22;9418;52.694;13.294;2023-05-10T07:30:11;15.90;99.90
18577;DHT22;9418;52.694;13.294;2023-05-10T07:32:38;16.10;99.90
18577;DHT22;9418;52.694;13.294;2023-05-10T07:35:07;16.30;99.90
18577;DHT22;9418;52.694;13.294;2023-05-10T07:37:34;16.10;99.90
18577;DHT22;9418;52.694;13.294;2023-05-10T07:40:01;16.00;99.90
18577;DHT22;9418;52.694;13.294;2023-05-10T07:42:27;16.00;99.90
18577;DHT22;9418;52.694;13.294;2023-05-10T07:44:55;16.10;99.90
18577;DHT22;9418;52.694;13.294;2023-05-10T07:47:22;16.10;99.90
18577;DHT22;9418;52.694;13.294;2023-05-10T07:49:48;16.10;99.90
18577;DHT22;9418;52.694;13.294;2023-05-10T07:52:15;16.20;99.90
18577;DHT22;9418;52.694;13.294;2023-05-10T07:54:41;16.30;99.90
18577;DHT22;9418;52.694;13.294;2023-05-10T07:57:08;16.40;99.90
18577;DHT22;9418;52.694;13.294;2023-05-10T07:59:34;16.60;99.90
18577;DHT22;9418;52.694;13.294;2023-05-10T08:02:03;16.40;99.90
18577;DHT22;9418;52.694;13.294;2023-05-10T08:04:29;16.50;99.90
18577;DHT22;9418;52.694;13.294;2023-05-10T08:06:56;16.60;99.90
18577;DHT22;9418;52.694;13.294;2023-05-10T08:09:22;16.80;99.90
18577;DHT22;9418;52.694;13.294;2023-05-10T08:11:49;16.70;99.90
18577;DHT22;9418;52.694;13.294;2023-05-10T08:14:15;16.90;99.90
18577;DHT22;9418;52.694;13.294;2023-05-10T08:16:42;17.10;99.90
18577;DHT22;9418;52.694;13.294;2023-05-10T08:19:10;17.10;99.90
18577;DHT22;9418;52.694;13.294;2023-05-10T08:21:36;17.00;99.90
18577;DHT22;9418;52.694;13.294;2023-05-10T08:24:03;17.30;99.90
18577;DHT22;9418;52.694;13.294;2023-05-10T08:26:33;17.30;99.90
18577;DHT22;9418;52.694;13.294;2023-05-10T08:28:59;17.50;99.90
18577;DHT22;9418;52.694;13.294;2023-05-10T08:31:26;17.40;99.90
18577;DHT22;9418;52.694;13.294;2023-05-10T08:33:53;17.60;99.90
18577;DHT22;9418;52.694;13.294;2023-05-10T08:36:21;17.70;99.90
18577;DHT22;9418;52.694;13.294;2023-05-10T08:38:50;17.70;99.90
18577;DHT22;9418;52.694;13.294;2023-05-10T08:41:18;17.70;99.90
18577;DHT22;9418;52.694;13.294;2023-05-10T08:43:46;18.20;99.90
18577;DHT22;9418;52.694;13.294;2023-05-10T08:46:16;18.40;99.90
18577;DHT22;9418;52.694;13.294;2023-05-10T08:48:44;18.30;99.90
18577;DHT22;9418;52.694;13.294;2023-05-10T08:51:13;18.70;99.90
18577;DHT22;9418;52.694;13.294;2023-05-10T08:53:43;18.50;99.90
18577;DHT22;9418;52.694;13.294;2023-05-10T08:56:10;18.80;99.90
18577;DHT22;9418;52.694;13.294;2023-05-10T08:58:37;19.20;99.90
18577;DHT22;9418;52.694;13.294;2023-05-10T09:01:05;19.50;99.90
18577;DHT22;9418;52.694;13.294;2023-05-10T09:03:31;20.00;99.90
18577;DHT22;9418;52.694;13.294;2023-05-10T09:05:58;20.50;99.90
18577;DHT22;9418;52.694;13.294;2023-05-10T09:08:25;20.70;99.90
18577;DHT22;9418;52.694;13.294;2023-05-10T09:10:54;20.30;99.90
18577;DHT22;9418;52.694;13.294;2023-05-10T09:13:22;21.70;99.90
18577;DHT22;9418;52.694;13.294;2023-05-10T09:15:49;22.40;99.90
18577;DHT22;9418;52.694;13.294;2023-05-10T09:18:17;22.00;99.90
18577;DHT22;9418;52.694;13.294;2023-05-10T09:20:43;22.30;99.90
18577;DHT22;9418;52.694;13.294;2023-05-10T09:23:10;22.20;99.90
18577;DHT22;9418;52.694;13.294;2023-05-10T09:25:36;21.60;99.90
18577;DHT22;9418;52.694;13.294;2023-05-10T09:28:07;22.10;99.90
18577;DHT22;9418;52.694;13.294;2023-05-10T09:30:35;21.80;99.90
18577;DHT22;9418;52.694;13.294;2023-05-10T09:33:02;21.50;99.90
18577;DHT22;9418;52.694;13.294;2023-05-10T09:35:31;21.90;99.90
18577;DHT22;9418;52.694;13.294;2023-05-10T09:38:02;21.90;99.90
18577;DHT22;9418;52.694;13.294;2023-05-10T09:40:30;22.30;99.90
18577;DHT22;9418;52.694;13.294;2023-05-10T09:42:57;22.70;99.90
18577;DHT22;9418;52.694;13.294;2023-05-10T09:45:30;22.30;99.90
18577;DHT22;9418;52.694;13.294;2023-05-10T09:47:58;21.70;99.90
18577;DHT22;9418;52.694;13.294;2023-05-10T09:50:26;21.70;99.90
18577;DHT22;9418;52.694;13.294;2023-05-10T09:52:54;22.80;99.90
18577;DHT22;9418;52.694;13.294;2023-05-10T09:55:23;21.30;99.90
18577;DHT22;9418;52.694;13.294;2023-05-10T09:57:59;23.00;99.90
18577;DHT22;9418;52.694;13.294;2023-05-10T10:00:28;23.60;99.90
18577;DHT22;9418;52.694;13.294;2023-05-10T10:02:56;24.00;99.90
18577;DHT22;9418;52.694;13.294;2023-05-10T10:05:28;24.10;99.90
18577;DHT22;9418;52.694;13.294;2023-05-10T10:07:55;24.20;99.90
18577;DHT22;9418;52.694;13.294;2023-05-10T10:10:23;23.50;99.90
18577;DHT22;9418;52.694;13.294;2023-05-10T10:12:50;23.60;99.90
18577;DHT22;9418;52.694;13.294;2023-05-10T10:15:17;23.70;99.90
18577;DHT22;9418;52.694;13.294;2023-05-10T10:17:45;24.00;99.90
18577;DHT22;9418;52.694;13.294;2023-05-10T10:20:13;24.30;99.90
18577;DHT22;9418;52.694;13.294;2023-05-10T10:22:39;23.70;99.90
18577;DHT22;9418;52.694;13.294;2023-05-10T10:25:07;24.10;99.90
18577;DHT22;9418;52.694;13.294;2023-05-10T10:27:42;24.30;99.90
18577;DHT22;9418;52.694;13.294;2023-05-10T10:30:16;23.60;99.90
18577;DHT22;9418;52.694;13.294;2023-05-10T10:35:54;24.10;99.90
18577;DHT22;9418;52.694;13.294;2023-05-10T10:38:22;24.30;99.90
18577;DHT22;9418;52.694;13.294;2023-05-10T10:41:01;23.30;99.90
18577;DHT22;9418;52.694;13.294;2023-05-10T10:43:28;24.20;99.90
18577;DHT22;9418;52.694;13.294;2023-05-10T10:46:15;24.30;99.90
18577;DHT22;9418;52.694;13.294;2023-05-10T10:48:49;24.70;99.90
18577;DHT22;9418;52.694;13.294;2023-05-10T10:51:16;24.70;99.90
18577;DHT22;9418;52.694;13.294;2023-05-10T10:53:43;24.20;99.90
18577;DHT22;9418;52.694;13.294;2023-05-10T10:56:11;22.50;99.90
18577;DHT22;9418;52.694;13.294;2023-05-10T10:58:39;23.40;99.90
18577;DHT22;9418;52.694;13.294;2023-05-10T11:01:11;24.60;99.90
18577;DHT22;9418;52.694;13.294;2023-05-10T11:03:37;25.30;99.90
18577;DHT22;9418;52.694;13.294;2023-05-10T11:06:06;26.10;99.90
18577;DHT22;9418;52.694;13.294;2023-05-10T11:08:34;26.60;99.90
18577;DHT22;9418;52.694;13.294;2023-05-10T11:11:07;26.70;99.90
18577;DHT22;9418;52.694;13.294;2023-05-10T11:13:38;26.30;96.00
18577;DHT22;9418;52.694;13.294;2023-05-10T11:16:16;26.10;99.90
18577;DHT22;9418;52.694;13.294;2023-05-10T11:19:08;25.00;98.80
18577;DHT22;9418;52.694;13.294;2023-05-10T11:21:45;24.90;99.90
18577;DHT22;9418;52.694;13.294;2023-05-10T11:24:14;25.60;99.90
18577;DHT22;9418;52.694;13.294;2023-05-10T11:26:41;25.20;99.90
18577;DHT22;9418;52.694;13.294;2023-05-10T11:29:08;25.00;88.20
18577;DHT22;9418;52.694;13.294;2023-05-10T11:31:35;25.30;96.30
18577;DHT22;9418;52.694;13.294;2023-05-10T11:34:07;24.80;91.70
18577;DHT22;9418;52.694;13.294;2023-05-10T11:36:42;24.70;99.90
18577;DHT22;9418;52.694;13.294;2023-05-10T11:39:08;24.50;99.90
18577;DHT22;9418;52.694;13.294;2023-05-10T11:41:36;24.30;99.90
18577;DHT22;9418;52.694;13.294;2023-05-10T11:44:03;24.70;99.90
18577;DHT22;9418;52.694;13.294;2023-05-10T11:46:30;24.70;99.90
18577;DHT22;9418;52.694;13.294;2023-05-10T11:48:58;24.30;99.90
18577;DHT22;9418;52.694;13.294;2023-05-10T11:51:27;24.70;99.90
18577;DHT22;9418;52.694;13.294;2023-05-10T11:53:56;24.70;99.90
18577;DHT22;9418;52.694;13.294;2023-05-10T11:56:23;24.90;99.90
18577;DHT22;9418;52.694;13.294;2023-05-10T11:58:56;25.00;99.90
18577;DHT22;9418;52.694;13.294;2023-05-10T12:01:23;24.10;99.90
18577;DHT22;9418;52.694;13.294;2023-05-10T12:03:50;25.20;99.90
18577;DHT22;9418;52.694;13.294;2023-05-10T12:06:18;24.90;99.90
18577;DHT22;9418;52.694;13.294;2023-05-10T12:08:46;24.70;99.90
18577;DHT22;9418;52.694;13.294;2023-05-10T12:11:14;23.50;99.90
18577;DHT22;9418;52.694;13.294;2023-05-10T12:13:42;24.70;99.90
18577;DHT22;9418;52.694;13.294;2023-05-10T12:16:15;24.90;99.90
18577;DHT22;9418;52.694;13.294;2023-05-10T12:18:42;25.30;99.90
18577;DHT22;9418;52.694;13.294;2023-05-10T12:21:10;24.50;99.90
18577;DHT22;9418;52.694;13.294;2023-05-10T12:23:37;25.10;99.90
18577;DHT22;9418;52.694;13.294;2023-05-10T12:26:04;24.90;99.90
18577;DHT22;9418;52.694;13.294;2023-05-10T12:28:32;25.30;99.90
18577;DHT22;9418;52.694;13.294;2023-05-10T12:30:59;25.70;99.90
18577;DHT22;9418;52.694;13.294;2023-05-10T12:33:26;25.80;99.90
18577;DHT22;9418;52.694;13.294;2023-05-10T12:35:54;25.50;99.90
18577;DHT22;9418;52.694;13.294;2023-05-10T12:38:25;25.90;99.90
18577;DHT22;9418;52.694;13.294;2023-05-10T12:40:54;25.80;87.80
18577;DHT22;9418;52.694;13.294;2023-05-10T12:43:21;25.30;99.90
18577;DHT22;9418;52.694;13.294;2023-05-10T12:45:49;25.10;99.90
18577;DHT22;9418;52.694;13.294;2023-05-10T12:48:15;25.80;99.90
18577;DHT22;9418;52.694;13.294;2023-05-10T12:50:42;25.80;99.90
18577;DHT22;9418;52.694;13.294;2023-05-10T12:53:09;25.00;99.90
18577;DHT22;9418;52.694;13.294;2023-05-10T12:55:35;25.30;99.90
18577;DHT22;9418;52.694;13.294;2023-05-10T12:58:02;26.00;95.10
18577;DHT22;9418;52.694;13.294;2023-05-10T13:00:28;26.40;99.90
18577;DHT22;9418;52.694;13.294;2023-05-10T13:02:56;25.90;99.90
18577;DHT22;9418;52.694;13.294;2023-05-10T13:05:23;26.20;93.80
18577;DHT22;9418;52.694;13.294;2023-05-10T13:07:49;26.80;99.00
18577;DHT22;9418;52.694;13.294;2023-05-10T13:10:16;27.20;72.60
18577;DHT22;9418;52.694;13.294;2023-05-10T13:12:43;26.80;21.50
18577;DHT22;9418;52.694;13.294;2023-05-10T13:15:09;25.20;82.50
18577;DHT22;9418;52.694;13.294;2023-05-10T13:17:36;26.80;74.40
18577;DHT22;9418;52.694;13.294;2023-05-10T13:20:06;27.00;20.20
18577;DHT22;9418;52.694;13.294;2023-05-10T13:22:33;27.10;71.60
18577;DHT22;9418;52.694;13.294;2023-05-10T13:24:59;26.30;21.20
18577;DHT22;9418;52.694;13.294;2023-05-10T13:27:26;25.90;20.90
18577;DHT22;9418;52.694;13.294;2023-05-10T13:29:52;25.20;75.70
18577;DHT22;9418;52.694;13.294;2023-05-10T13:32:20;25.40;93.30
18577;DHT22;9418;52.694;13.294;2023-05-10T13:34:47;25.90;20.90
18577;DHT22;9418;52.694;13.294;2023-05-10T13:37:15;26.30;78.00
18577;DHT22;9418;52.694;13.294;2023-05-10T13:39:41;25.50;74.60
18577;DHT22;9418;52.694;13.294;2023-05-10T13:42:08;26.00;73.60
18577;DHT22;9418;52.694;13.294;2023-05-10T13:44:34;25.70;20.50
18577;DHT22;9418;52.694;13.294;2023-05-10T13:47:01;25.40;74.50
18577;DHT22;9418;52.694;13.294;2023-05-10T13:49:28;25.60;21.30
18577;DHT22;9418;52.694;13.294;2023-05-10T13:51:54;25.70;22.30
18577;DHT22;9418;52.694;13.294;2023-05-10T13:54:23;26.10;23.00
18577;DHT22;9418;52.694;13.294;2023-05-10T13:56:50;25.80;25.30
18577;DHT22;9418;52.694;13.294;2023-05-10T13:59:17;26.40;22.00
18577;DHT22;9418;52.694;13.294;2023-05-10T14:01:43;26.80;23.40
18577;DHT22;9418;52.694;13.294;2023-05-10T14:04:10;26.80;22.20
18577;DHT22;9418;52.694;13.294;2023-05-10T14:06:37;25.00;24.10
18577;DHT22;9418;52.694;13.294;2023-05-10T14:09:04;26.20;22.60
18577;DHT22;9418;52.694;13.294;2023-05-10T14:11:31;26.50;21.40
18577;DHT22;9418;52.694;13.294;2023-05-10T14:13:58;26.70;22.70
18577;DHT22;9418;52.694;13.294;2023-05-10T14:16:25;26.80;21.50
18577;DHT22;9418;52.694;13.294;2023-05-10T14:18:52;26.60;21.90
18577;DHT22;9418;52.694;13.294;2023-05-10T14:21:19;26.60;22.40
18577;DHT22;9418;52.694;13.294;2023-05-10T14:23:45;27.10;23.10
18577;DHT22;9418;52.694;13.294;2023-05-10T14:26:12;27.60;23.60
18577;DHT22;9418;52.694;13.294;2023-05-10T14:28:39;27.50;24.30
18577;DHT22;9418;52.694;13.294;2023-05-10T14:31:06;27.70;24.20
18577;DHT22;9418;52.694;13.294;2023-05-10T14:33:33;26.50;25.00
18577;DHT22;9418;52.694;13.294;2023-05-10T14:35:59;26.10;23.10
18577;DHT22;9418;52.694;13.294;2023-05-10T14:38:26;25.00;21.10
18577;DHT22;9418;52.694;13.294;2023-05-10T14:40:53;24.50;80.60
18577;DHT22;9418;52.694;13.294;2023-05-10T14:43:19;24.00;84.00
18577;DHT22;9418;52.694;13.294;2023-05-10T14:45:47;23.80;89.90
18577;DHT22;9418;52.694;13.294;2023-05-10T14:48:14;24.50;78.10
18577;DHT22;9418;52.694;13.294;2023-05-10T14:50:42;25.40;21.20
18577;DHT22;9418;52.694;13.294;2023-05-10T14:53:09;26.30;21.50
18577;DHT22;9418;52.694;13.294;2023-05-10T14:55:35;27.20;24.70
18577;DHT22;9418;52.694;13.294;2023-05-10T14:58:03;26.90;26.50
18577;DHT22;9418;52.694;13.294;2023-05-10T15:00:31;27.10;24.40
18577;DHT22;9418;52.694;13.294;2023-05-10T15:02:59;26.30;24.70
18577;DHT22;9418;52.694;13.294;2023-05-10T15:05:25;27.20;25.20
18577;DHT22;9418;52.694;13.294;2023-05-10T15:07:52;27.70;27.10
18577;DHT22;9418;52.694;13.294;2023-05-10T15:10:19;27.70;26.10
18577;DHT22;9418;52.694;13.294;2023-05-10T15:12:45;27.10;24.90
18577;DHT22;9418;52.694;13.294;2023-05-10T15:15:12;27.00;26.00
18577;DHT22;9418;52.694;13.294;2023-05-10T15:17:38;27.00;25.80
18577;DHT22;9418;52.694;13.294;2023-05-10T15:20:07;25.90;24.80
18577;DHT22;9418;52.694;13.294;2023-05-10T15:22:34;25.70;25.60
18577;DHT22;9418;52.694;13.294;2023-05-10T15:25:01;25.20;23.70
18577;DHT22;9418;52.694;13.294;2023-05-10T15:27:27;25.10;22.50
18577;DHT22;9418;52.694;13.294;2023-05-10T15:29:54;25.30;23.50
18577;DHT22;9418;52.694;13.294;2023-05-10T15:32:20;25.20;23.90
18577;DHT22;9418;52.694;13.294;2023-05-10T15:34:47;25.10;22.60
18577;DHT22;9418;52.694;13.294;2023-05-10T15:37:15;25.20;24.20
18577;DHT22;9418;52.694;13.294;2023-05-10T15:39:41;25.70;26.40
18577;DHT22;9418;52.694;13.294;2023-05-10T15:42:08;25.90;25.80
18577;DHT22;9418;52.694;13.294;2023-05-10T15:44:35;26.60;26.90